createdAt,value
2017-09-09T00:00:55.280Z,54.70
2017-09-09T00:03:24.025Z,54.80
2017-09-09T00:05:53.599Z,54.70
2017-09-09T00:08:23.245Z,54.80
2017-09-09T00:10:52.682Z,54.80
2017-09-09T00:13:22.135Z,54.80
2017-09-09T00:15:51.764Z,54.70
2017-09-09T00:18:20.913Z,54.80
2017-09-09T00:20:50.928Z,54.80
2017-09-09T00:23:19.675Z,54.80
2017-09-09T00:25:49.419Z,54.80
2017-09-09T00:28:18.456Z,55.00
2017-09-09T00:30:46.963Z,55.10
2017-09-09T00:33:15.810Z,55.00
2017-09-09T00:35:46.112Z,55.00
2017-09-09T00:38:15.579Z,55.10
2017-09-09T00:40:45.598Z,55.60
2017-09-09T00:43:14.628Z,55.20
2017-09-09T00:58:34.100Z,55.20
2017-09-09T01:01:04.331Z,55.80
2017-09-09T01:03:32.814Z,55.80
2017-09-09T01:06:02.111Z,55.90
2017-09-09T01:08:30.596Z,55.90
2017-09-09T01:11:01.729Z,55.90
2017-09-09T01:13:31.057Z,55.90
2017-09-09T01:16:01.693Z,56.00
2017-09-09T01:18:30.820Z,56.00
2017-09-09T01:20:59.153Z,56.10
2017-09-09T01:23:28.063Z,56.20
2017-09-09T01:25:57.627Z,56.20
2017-09-09T01:28:26.959Z,56.30
2017-09-09T01:30:57.054Z,56.30
2017-09-09T01:33:26.331Z,56.40
2017-09-09T01:35:54.016Z,56.60
2017-09-09T01:38:22.023Z,56.70
2017-09-09T01:40:51.167Z,56.60
2017-09-09T01:43:20.642Z,56.80
2017-09-09T01:45:48.750Z,56.70
2017-09-09T01:48:16.894Z,56.90
2017-09-09T01:50:45.781Z,56.80
2017-09-09T01:53:15.454Z,56.90
2017-09-09T01:55:45.543Z,57.00
2017-09-09T01:58:14.081Z,57.10
2017-09-09T02:00:45.844Z,57.10
2017-09-09T02:03:13.883Z,57.20
2017-09-09T02:05:43.299Z,57.30
2017-09-09T02:08:12.959Z,57.30
2017-09-09T02:10:42.073Z,57.30
2017-09-09T02:13:11.421Z,57.40
2017-09-09T02:15:40.479Z,57.40
2017-09-09T02:18:09.242Z,57.30
2017-09-09T02:20:37.682Z,57.40
2017-09-09T02:23:07.027Z,57.50
2017-09-09T02:25:36.319Z,57.50
2017-09-09T02:28:06.662Z,57.60
2017-09-09T02:30:35.638Z,57.70
2017-09-09T02:33:05.075Z,57.70
2017-09-09T02:35:34.369Z,57.60
2017-09-09T02:38:04.349Z,57.70
2017-09-09T02:40:34.463Z,57.80
2017-09-09T02:43:03.179Z,57.90
2017-09-09T02:45:32.498Z,58.00
2017-09-09T02:48:01.361Z,58.10
2017-09-09T02:50:30.394Z,58.10
2017-09-09T02:53:01.605Z,58.20
2017-09-09T02:55:30.493Z,58.30
2017-09-09T02:58:01.404Z,58.40
2017-09-09T03:00:32.103Z,58.60
2017-09-09T03:03:01.871Z,58.60
2017-09-09T03:05:30.934Z,58.80
2017-09-09T03:07:59.687Z,59.00
2017-09-09T03:10:29.760Z,59.10
2017-09-09T03:12:59.360Z,59.40
2017-09-09T03:15:27.854Z,59.50
2017-09-09T03:17:56.711Z,59.60
2017-09-09T03:20:28.440Z,59.70
2017-09-09T03:22:57.142Z,59.80
2017-09-09T03:25:26.386Z,59.90
2017-09-09T03:27:55.484Z,60.00
2017-09-09T03:30:36.128Z,59.90
2017-09-09T03:33:05.567Z,60.10
2017-09-09T03:35:36.454Z,60.30
2017-09-09T03:38:05.038Z,60.60
2017-09-09T03:40:33.456Z,60.70
2017-09-09T03:43:01.209Z,60.60
2017-09-09T03:45:29.712Z,60.60
2017-09-09T03:48:01.182Z,60.90
2017-09-09T03:50:30.397Z,60.70
2017-09-09T03:53:00.772Z,60.80
2017-09-09T03:55:30.606Z,60.80
2017-09-09T03:58:00.005Z,60.90
2017-09-09T04:00:29.622Z,61.00
2017-09-09T04:02:57.644Z,61.10
2017-09-09T04:05:26.435Z,61.10
2017-09-09T04:07:54.867Z,61.20
2017-09-09T04:10:24.547Z,61.30
2017-09-09T04:12:56.295Z,61.40
2017-09-09T04:15:24.958Z,61.40
2017-09-09T04:17:54.100Z,61.20
2017-09-09T04:20:23.358Z,61.50
2017-09-09T04:22:52.187Z,61.50
2017-09-09T04:25:20.597Z,61.40
2017-09-09T04:27:49.627Z,61.50
2017-09-09T04:30:19.284Z,61.60
2017-09-09T04:32:47.562Z,61.70
2017-09-09T04:35:16.363Z,61.70
2017-09-09T04:37:45.545Z,61.60
2017-09-09T04:40:13.659Z,61.60
2017-09-09T04:42:43.714Z,61.80
2017-09-09T04:45:12.133Z,61.70
2017-09-09T04:47:41.676Z,61.60
2017-09-09T04:50:10.487Z,61.70
2017-09-09T04:52:39.481Z,61.80
2017-09-09T04:55:07.202Z,61.70
2017-09-09T04:57:35.433Z,61.70
2017-09-09T05:00:08.248Z,61.70
2017-09-09T05:02:37.082Z,61.80
2017-09-09T05:05:08.208Z,61.90
2017-09-09T05:07:37.172Z,62.10
2017-09-09T05:10:06.657Z,61.80
2017-09-09T05:12:36.182Z,61.80
2017-09-09T05:15:10.671Z,61.70
2017-09-09T05:17:39.897Z,61.60
2017-09-09T05:20:08.753Z,61.90
2017-09-09T05:22:37.130Z,61.90
2017-09-09T05:25:07.480Z,61.80
2017-09-09T05:27:36.759Z,62.10
2017-09-09T05:30:06.032Z,61.80
2017-09-09T05:32:35.739Z,61.80
2017-09-09T05:35:11.336Z,61.80
2017-09-09T05:37:45.095Z,62.00
2017-09-09T05:43:31.241Z,61.90
2017-09-09T05:46:01.816Z,61.80
2017-09-09T05:48:30.046Z,61.70
2017-09-09T05:51:00.490Z,61.60
2017-09-09T05:53:30.072Z,61.40
2017-09-09T05:55:58.247Z,61.40
2017-09-09T05:58:27.093Z,61.20
2017-09-09T06:00:55.859Z,61.20
2017-09-09T06:03:24.650Z,61.20
2017-09-09T06:05:53.995Z,61.00
2017-09-09T06:08:23.320Z,61.80
2017-09-09T06:10:58.224Z,61.00
2017-09-09T06:13:26.596Z,61.00
2017-09-09T06:15:59.183Z,60.90
2017-09-09T06:18:30.230Z,60.80
2017-09-09T06:21:00.125Z,60.90
2017-09-09T06:23:32.272Z,60.60
2017-09-09T06:26:02.134Z,60.80
2017-09-09T06:28:30.729Z,60.80
2017-09-09T06:31:01.100Z,60.70
2017-09-09T06:33:30.315Z,60.60
2017-09-09T06:36:00.400Z,60.70
2017-09-09T06:38:29.459Z,60.60
2017-09-09T06:40:57.848Z,60.40
2017-09-09T06:43:28.990Z,60.30
2017-09-09T06:45:58.227Z,61.10
2017-09-09T06:48:29.863Z,60.30
2017-09-09T06:50:59.846Z,60.50
2017-09-09T06:53:30.568Z,60.10
2017-09-09T06:55:59.984Z,60.00
2017-09-09T06:58:29.559Z,60.30
2017-09-09T07:00:57.072Z,60.20
2017-09-09T07:03:25.679Z,60.20
2017-09-09T07:05:54.550Z,60.20
2017-09-09T07:08:24.374Z,60.20
2017-09-09T07:10:53.094Z,60.00
2017-09-09T07:13:21.447Z,59.90
2017-09-09T07:15:53.621Z,59.60
2017-09-09T07:18:24.373Z,59.50
2017-09-09T07:20:53.800Z,59.40
2017-09-09T07:23:22.604Z,59.40
2017-09-09T07:25:51.302Z,59.30
2017-09-09T07:28:20.695Z,59.40
2017-09-09T07:30:50.983Z,59.30
2017-09-09T07:33:19.387Z,59.30
2017-09-09T07:35:48.771Z,59.10
2017-09-09T07:38:18.664Z,59.00
2017-09-09T07:40:47.187Z,58.90
2017-09-09T07:43:18.277Z,58.70
2017-09-09T07:45:46.996Z,59.40
2017-09-09T07:48:16.461Z,58.60
2017-09-09T07:50:45.184Z,58.50
2017-09-09T07:53:14.065Z,58.60
2017-09-09T07:55:43.725Z,58.40
2017-09-09T07:58:14.044Z,58.40
2017-09-09T08:00:43.552Z,58.40
2017-09-09T08:03:14.148Z,58.20
2017-09-09T08:05:43.695Z,58.20
2017-09-09T08:08:12.821Z,58.00
2017-09-09T08:10:41.575Z,57.90
2017-09-09T08:13:11.859Z,57.80
2017-09-09T08:15:41.846Z,57.70
2017-09-09T08:18:10.416Z,57.60
2017-09-09T08:20:39.422Z,57.30
2017-09-09T08:23:07.924Z,57.20
2017-09-09T08:25:36.861Z,56.80
2017-09-09T08:28:06.791Z,56.80
2017-09-09T08:30:36.596Z,56.60
2017-09-09T08:33:06.280Z,56.50
2017-09-09T08:35:34.493Z,56.40
2017-09-09T08:38:03.039Z,56.30
2017-09-09T08:40:31.656Z,56.30
2017-09-09T08:43:00.744Z,56.30
2017-09-09T08:45:29.646Z,56.20
2017-09-09T08:47:59.151Z,56.30
2017-09-09T08:50:29.008Z,55.90
2017-09-09T08:52:58.441Z,55.60
2017-09-09T08:55:27.279Z,55.60
2017-09-09T08:57:56.864Z,56.00
2017-09-09T09:00:27.587Z,55.30
2017-09-09T09:03:03.145Z,55.20
2017-09-09T09:05:32.144Z,55.10
2017-09-09T09:08:01.481Z,54.90
2017-09-09T09:10:30.013Z,54.80
2017-09-09T09:12:59.173Z,54.70
2017-09-09T09:15:28.386Z,54.50
2017-09-09T09:17:58.038Z,54.10
2017-09-09T09:20:27.064Z,53.80
2017-09-09T09:22:56.621Z,53.70
2017-09-09T09:25:25.415Z,53.60
2017-09-09T09:27:55.937Z,53.50
2017-09-09T09:30:25.301Z,53.50
2017-09-09T09:32:54.568Z,53.40
2017-09-09T09:35:24.033Z,53.30
2017-09-09T09:37:53.570Z,53.20
2017-09-09T09:40:22.220Z,53.20
2017-09-09T09:42:51.032Z,53.00
2017-09-09T09:45:19.749Z,52.80
2017-09-09T09:47:48.447Z,52.80
2017-09-09T09:50:17.475Z,52.60
2017-09-09T09:52:48.047Z,52.30
2017-09-09T09:55:18.914Z,52.30
2017-09-09T09:57:48.287Z,52.70
2017-09-09T10:00:17.885Z,51.80
2017-09-09T10:02:46.923Z,51.70
2017-09-09T10:05:17.006Z,51.60
2017-09-09T10:07:46.485Z,51.50
2017-09-09T10:10:16.455Z,51.50
2017-09-09T10:12:45.717Z,51.40
2017-09-09T10:15:15.364Z,51.30
2017-09-09T10:17:45.192Z,51.20
2017-09-09T10:20:14.549Z,51.10
2017-09-09T10:22:44.685Z,51.00
2017-09-09T10:25:14.970Z,51.10
2017-09-09T10:27:44.219Z,50.90
2017-09-09T10:30:11.769Z,50.90
2017-09-09T10:32:43.566Z,50.80
2017-09-09T10:35:12.744Z,50.60
2017-09-09T10:37:41.276Z,50.40
2017-09-09T10:40:11.232Z,50.40
2017-09-09T10:42:39.915Z,50.30
2017-09-09T10:45:15.151Z,50.10
2017-09-09T10:47:44.595Z,49.10
2017-09-09T10:50:14.781Z,49.10
2017-09-09T10:52:44.280Z,48.80
2017-09-09T10:55:14.033Z,48.00
2017-09-09T10:57:42.022Z,48.00
2017-09-09T11:00:10.888Z,47.60
2017-09-09T11:02:39.607Z,47.90
2017-09-09T11:05:09.646Z,47.20
2017-09-09T11:07:38.240Z,47.00
2017-09-09T11:10:08.687Z,47.00
2017-09-09T11:12:37.031Z,46.70
2017-09-09T11:15:06.931Z,46.70
2017-09-09T11:17:35.530Z,46.60
2017-09-09T11:20:06.544Z,46.20
2017-09-09T11:22:35.868Z,46.20
2017-09-09T11:25:06.562Z,46.00
2017-09-09T11:27:36.626Z,45.90
2017-09-09T11:30:06.804Z,45.60
2017-09-09T11:32:36.244Z,45.50
2017-09-09T11:35:09.532Z,45.40
2017-09-09T11:37:40.244Z,45.20
2017-09-09T11:40:09.426Z,45.70
2017-09-09T11:42:38.642Z,45.00
2017-09-09T11:45:06.823Z,45.00
2017-09-09T11:47:35.028Z,45.10
2017-09-09T11:50:04.416Z,45.10
2017-09-09T11:52:33.444Z,44.90
2017-09-09T11:55:02.087Z,44.70
2017-09-09T11:57:32.116Z,44.60
2017-09-09T12:00:01.353Z,44.60
2017-09-09T12:02:30.610Z,44.70
2017-09-09T12:04:59.329Z,44.50
2017-09-09T12:07:28.855Z,44.20
2017-09-09T12:09:57.914Z,44.20
2017-09-09T12:12:26.064Z,44.20
2017-09-09T12:14:54.780Z,44.20
2017-09-09T12:17:23.748Z,44.20
2017-09-09T12:19:52.977Z,43.90
2017-09-09T12:22:21.136Z,44.10
2017-09-09T12:24:51.071Z,44.00
2017-09-09T12:27:19.892Z,44.00
2017-09-09T12:29:49.461Z,44.10
2017-09-09T12:32:18.343Z,44.00
2017-09-09T12:34:46.936Z,44.10
2017-09-09T12:37:15.778Z,43.90
2017-09-09T12:39:43.774Z,44.00
2017-09-09T12:42:14.047Z,44.00
2017-09-09T12:44:43.789Z,43.60
2017-09-09T12:47:12.797Z,43.90
2017-09-09T12:49:42.499Z,43.60
2017-09-09T12:52:11.637Z,44.00
2017-09-09T12:54:45.861Z,43.50
2017-09-09T12:57:17.414Z,43.60
2017-09-09T12:59:49.981Z,43.70
2017-09-09T13:02:19.251Z,43.60
2017-09-09T13:04:46.776Z,43.60
2017-09-09T13:07:16.023Z,43.60
2017-09-09T13:09:44.290Z,43.50
2017-09-09T13:21:53.637Z,43.40
2017-09-09T13:24:22.406Z,43.20
2017-09-09T13:26:50.852Z,42.90
2017-09-09T13:29:19.477Z,42.70
2017-09-09T13:31:47.011Z,42.70
2017-09-09T13:34:15.785Z,42.60
2017-09-09T13:36:44.206Z,42.50
2017-09-09T13:39:13.240Z,42.50
2017-09-09T13:41:42.235Z,42.50
2017-09-09T13:44:11.435Z,42.60
2017-09-09T13:46:41.171Z,42.40
2017-09-09T13:49:11.127Z,42.40
2017-09-09T13:51:41.388Z,42.50
2017-09-09T13:54:10.335Z,42.40
2017-09-09T13:56:39.014Z,42.10
2017-09-09T13:59:07.876Z,42.20
2017-09-09T14:11:17.204Z,42.30
2017-09-09T14:13:46.505Z,42.50
2017-09-09T14:16:16.396Z,42.50
2017-09-09T14:18:45.242Z,42.60
2017-09-09T14:21:15.686Z,42.70
2017-09-09T14:23:45.056Z,42.60
2017-09-09T14:26:17.650Z,42.50
2017-09-09T14:28:47.111Z,42.50
2017-09-09T14:31:17.388Z,42.80
2017-09-09T14:33:46.830Z,42.90
2017-09-09T14:36:16.373Z,42.90
2017-09-09T14:38:44.321Z,42.90
2017-09-09T14:41:14.485Z,42.90
2017-09-09T14:43:44.232Z,42.90
2017-09-09T14:46:13.643Z,42.90
2017-09-09T14:48:41.858Z,42.90
2017-09-09T14:53:48.689Z,43.10
2017-09-09T14:56:18.525Z,43.10
2017-09-09T14:58:47.836Z,43.10
2017-09-09T15:01:16.893Z,43.00
2017-09-09T15:03:45.975Z,43.20
2017-09-09T15:06:14.838Z,43.30
2017-09-09T15:08:53.709Z,43.30
2017-09-09T15:11:22.616Z,43.50
2017-09-09T15:13:52.491Z,43.50
2017-09-09T15:16:22.608Z,43.60
2017-09-09T15:18:51.914Z,43.50
2017-09-09T15:21:22.317Z,43.50
2017-09-09T15:23:52.352Z,43.50
2017-09-09T15:26:20.841Z,43.00
2017-09-09T15:28:49.816Z,42.80
2017-09-09T15:31:18.915Z,42.50
2017-09-09T15:33:47.336Z,42.40
2017-09-09T15:36:16.584Z,42.70
2017-09-09T15:38:46.181Z,42.90
2017-09-09T15:41:15.129Z,42.80
2017-09-09T15:43:44.498Z,42.90
2017-09-09T15:46:13.758Z,42.90
2017-09-09T15:51:17.978Z,42.80
2017-09-09T15:53:47.090Z,42.40
2017-09-09T15:56:16.147Z,42.60
2017-09-09T15:58:46.591Z,42.70
2017-09-09T16:01:16.882Z,42.90
2017-09-09T16:03:49.459Z,43.10
2017-09-09T16:06:18.823Z,43.20
2017-09-09T16:08:50.266Z,43.30
2017-09-09T16:11:22.042Z,43.40
2017-09-09T16:13:50.805Z,43.40
2017-09-09T16:16:20.411Z,43.50
2017-09-09T16:18:49.151Z,43.50
2017-09-09T16:21:18.373Z,43.50
2017-09-09T16:23:47.692Z,43.40
2017-09-09T16:26:17.226Z,43.50
2017-09-09T16:28:47.980Z,43.40
2017-09-09T16:31:17.276Z,43.40
2017-09-09T16:33:46.642Z,43.50
2017-09-09T16:36:19.887Z,43.50
2017-09-09T16:38:49.499Z,43.60
2017-09-09T16:41:18.563Z,43.80
2017-09-09T16:43:50.401Z,43.90
2017-09-09T16:46:19.184Z,44.00
2017-09-09T16:51:50.096Z,44.20
2017-09-09T16:54:18.538Z,44.40
2017-09-09T16:56:48.367Z,44.70
2017-09-09T16:59:17.772Z,45.20
2017-09-09T17:01:47.203Z,44.70
2017-09-09T17:04:15.892Z,44.90
2017-09-09T17:06:44.154Z,45.00
2017-09-09T17:18:52.841Z,45.20
2017-09-09T17:21:23.049Z,46.00
2017-09-09T17:23:51.304Z,46.10
2017-09-09T17:26:21.195Z,46.20
2017-09-09T17:28:50.164Z,46.20
2017-09-09T17:31:18.507Z,46.30
2017-09-09T17:33:46.647Z,46.30
2017-09-09T17:36:16.598Z,46.30
2017-09-09T17:38:47.843Z,46.50
2017-09-09T17:41:17.741Z,46.50
2017-09-09T17:43:48.218Z,46.60
2017-09-09T17:46:18.652Z,46.50
2017-09-09T17:51:23.602Z,46.70
2017-09-09T17:53:53.720Z,47.00
2017-09-09T17:56:22.247Z,47.20
2017-09-09T17:58:51.605Z,47.50
2017-09-09T18:01:20.841Z,47.70
2017-09-09T18:03:50.096Z,47.90
2017-09-09T18:06:19.552Z,48.00
2017-09-09T18:08:50.465Z,48.80
2017-09-09T18:11:19.307Z,48.60
2017-09-09T18:13:48.276Z,48.80
2017-09-09T18:16:18.596Z,49.20
2017-09-09T18:18:47.536Z,49.30
2017-09-09T18:21:16.381Z,49.50
2017-09-09T18:23:46.387Z,49.90
2017-09-09T18:26:15.351Z,50.20
2017-09-09T18:28:44.376Z,50.20
2017-09-09T18:31:16.345Z,50.30
2017-09-09T18:33:45.728Z,50.40
2017-09-09T18:36:16.394Z,50.40
2017-09-09T18:38:44.395Z,50.40
2017-09-09T18:41:13.189Z,50.50
2017-09-09T18:43:43.150Z,50.60
2017-09-09T18:46:11.744Z,50.80
2017-09-09T18:48:41.683Z,51.10
2017-09-09T18:51:10.043Z,51.20
2017-09-09T18:53:39.510Z,51.20
2017-09-09T18:56:07.317Z,51.10
2017-09-09T18:58:36.414Z,51.20
2017-09-09T19:01:05.706Z,51.10
2017-09-09T19:03:34.331Z,51.10
2017-09-09T19:06:02.508Z,51.10
2017-09-09T19:08:31.190Z,51.20
2017-09-09T19:11:00.252Z,51.30
2017-09-09T19:13:29.091Z,51.20
2017-09-09T19:15:57.910Z,51.30
2017-09-09T19:18:26.934Z,51.30
2017-09-09T19:20:55.171Z,51.20
2017-09-09T19:23:24.294Z,51.10
2017-09-09T19:25:53.859Z,51.70
2017-09-09T19:28:22.116Z,51.60
2017-09-09T19:30:51.148Z,52.30
2017-09-09T19:33:19.934Z,52.80
2017-09-09T19:35:48.071Z,53.10
2017-09-09T19:38:17.189Z,53.90
2017-09-09T19:40:45.290Z,53.50
2017-09-09T19:43:14.631Z,53.40
2017-09-09T19:45:43.114Z,53.40
2017-09-09T19:48:12.690Z,53.60
2017-09-09T19:50:42.790Z,53.20
2017-09-09T19:53:13.591Z,53.20
2017-09-09T19:55:42.584Z,52.90
2017-09-09T19:58:12.251Z,52.60
2017-09-09T20:00:42.039Z,52.70
2017-09-09T20:03:10.417Z,52.60
2017-09-09T20:18:35.022Z,53.00
2017-09-09T20:21:03.522Z,52.80
2017-09-09T20:23:31.537Z,52.70
2017-09-09T20:26:02.619Z,52.50
2017-09-09T20:28:34.468Z,52.30
2017-09-09T20:31:03.930Z,52.10
2017-09-09T20:33:33.097Z,51.80
2017-09-09T20:36:01.561Z,51.80
2017-09-09T20:38:31.511Z,51.90
2017-09-09T20:41:01.194Z,51.30
2017-09-09T20:43:32.717Z,51.10
2017-09-09T20:46:01.485Z,51.00
2017-09-09T20:48:30.501Z,50.80
2017-09-09T21:00:42.557Z,50.40
2017-09-09T21:03:14.283Z,50.90
2017-09-09T21:05:43.489Z,50.40
2017-09-09T21:08:11.085Z,50.90
2017-09-09T21:10:41.408Z,50.90
2017-09-09T21:13:13.954Z,51.20
2017-09-09T21:15:44.431Z,51.50
2017-09-09T21:18:14.115Z,52.80
2017-09-09T21:20:43.649Z,52.80
2017-09-09T21:23:13.422Z,53.40
2017-09-09T21:25:43.188Z,53.80
2017-09-09T21:28:12.265Z,54.20
2017-09-09T21:33:16.322Z,54.80
2017-09-09T21:35:45.458Z,55.30
2017-09-09T21:38:14.746Z,55.40
2017-09-09T21:40:44.711Z,55.40
2017-09-09T21:43:15.384Z,55.60
2017-09-09T21:45:45.444Z,55.50
2017-09-09T21:48:13.697Z,55.60
2017-09-09T21:50:42.669Z,55.60
2017-09-09T21:53:12.271Z,55.70
2017-09-09T21:55:41.359Z,55.70
2017-09-09T21:58:09.445Z,55.90
2017-09-09T22:00:41.974Z,56.00
2017-09-09T22:16:06.430Z,56.80
2017-09-09T22:18:35.386Z,56.70
2017-09-09T22:21:03.526Z,56.70
2017-09-09T22:23:34.574Z,56.40
2017-09-09T22:26:05.774Z,56.30
2017-09-09T22:28:35.339Z,56.30
2017-09-09T22:31:06.684Z,56.10
2017-09-09T22:33:35.974Z,56.00
2017-09-09T22:36:05.002Z,55.80
2017-09-09T22:38:34.435Z,55.80
2017-09-09T22:41:02.542Z,55.50
2017-09-09T22:43:32.794Z,55.60
2017-09-09T22:46:02.691Z,55.60
2017-09-09T22:48:31.556Z,55.60
2017-09-09T22:50:59.984Z,55.70
2017-09-09T22:53:29.475Z,55.60
2017-09-09T22:55:58.772Z,55.50
2017-09-09T22:58:28.524Z,55.30
2017-09-09T23:00:58.822Z,55.30
2017-09-09T23:03:27.570Z,55.40
2017-09-09T23:05:56.440Z,55.30
2017-09-09T23:08:24.656Z,55.30
2017-09-09T23:10:53.372Z,55.20
2017-09-09T23:13:21.210Z,54.90
2017-09-09T23:15:50.418Z,55.20
2017-09-09T23:18:19.181Z,55.20
2017-09-09T23:20:48.357Z,55.10
2017-09-09T23:23:16.702Z,55.00
2017-09-09T23:25:47.180Z,55.00
2017-09-09T23:28:15.909Z,55.10
2017-09-09T23:30:45.542Z,54.90
2017-09-09T23:33:15.637Z,54.90
2017-09-09T23:35:44.454Z,54.70
2017-09-09T23:38:14.011Z,54.50
2017-09-09T23:40:43.150Z,54.60
2017-09-09T23:43:11.768Z,54.60
2017-09-09T23:45:40.540Z,54.70
2017-09-09T23:48:09.903Z,54.60
2017-09-09T23:50:38.059Z,54.30
2017-09-09T23:53:07.097Z,54.50
2017-09-09T23:55:37.266Z,54.50
2017-09-09T23:58:08.149Z,54.70
